Hurst, Illinois
Current Conditions -  °F | °C
As of 1:52 PM on Tuesday 21 Oct 2014 (Local Time) from KMDH Reporting Station
Clear Clear  
Wind Chill: 20°   Ceiling: Unl
Heat Index: 20°   Visibility: NA
Dew Point:   Wind: 5mph
Humidity: 42%   Direction: 350°N
Pressure: 30.1"   Gusts: NA
Location:  37.83°N, 89.14°W
Report Text: KMDH 211852Z 35004KT CLR 20/07 A3010 RMK AO2 SLP190 T02000067 $
Loading
Personal Weather Stations






























Interactive Weather Map
Tropical Storm Tracking
New forecast layout! Learn more

10-Day Weather Forecast

Advertisements
Track Severe Weather on mobile